sensor_id;sensor_type;location;lat;lon;timestamp;P1;durP1;ratioP1;P2;durP2;ratioP2
61104;SDS011;46987;32.638;-115.438;2022-12-07T00:00:05;10.93;;;1.23;;
61104;SDS011;46987;32.638;-115.438;2022-12-07T00:02:33;6.32;;;0.90;;
61104;SDS011;46987;32.638;-115.438;2022-12-07T00:05:00;5.43;;;1.10;;
61104;SDS011;46987;32.638;-115.438;2022-12-07T00:07:27;6.53;;;1.33;;
61104;SDS011;46987;32.638;-115.438;2022-12-07T00:09:53;4.70;;;1.00;;
61104;SDS011;46987;32.638;-115.438;2022-12-07T00:12:20;5.55;;;0.80;;
61104;SDS011;46987;32.638;-115.438;2022-12-07T00:14:46;3.10;;;0.93;;
61104;SDS011;46987;32.638;-115.438;2022-12-07T00:17:13;6.93;;;1.40;;
61104;SDS011;46987;32.638;-115.438;2022-12-07T00:19:41;7.53;;;1.50;;
61104;SDS011;46987;32.638;-115.438;2022-12-07T00:22:07;10.95;;;2.10;;
61104;SDS011;46987;32.638;-115.438;2022-12-07T00:24:34;9.88;;;2.33;;
61104;SDS011;46987;32.638;-115.438;2022-12-07T00:27:01;10.30;;;2.38;;
61104;SDS011;46987;32.638;-115.438;2022-12-07T00:29:27;9.27;;;1.98;;
61104;SDS011;46987;32.638;-115.438;2022-12-07T00:31:54;8.82;;;1.80;;
61104;SDS011;46987;32.638;-115.438;2022-12-07T00:34:20;7.50;;;1.40;;
61104;SDS011;46987;32.638;-115.438;2022-12-07T00:36:49;12.43;;;2.20;;
61104;SDS011;46987;32.638;-115.438;2022-12-07T00:39:15;8.45;;;1.77;;
61104;SDS011;46987;32.638;-115.438;2022-12-07T00:41:42;7.88;;;1.75;;
61104;SDS011;46987;32.638;-115.438;2022-12-07T00:44:09;6.43;;;1.77;;
61104;SDS011;46987;32.638;-115.438;2022-12-07T00:46:35;12.95;;;2.58;;
61104;SDS011;46987;32.638;-115.438;2022-12-07T00:49:02;11.85;;;2.60;;
61104;SDS011;46987;32.638;-115.438;2022-12-07T00:51:28;18.25;;;3.15;;
61104;SDS011;46987;32.638;-115.438;2022-12-07T00:53:57;11.95;;;2.20;;
61104;SDS011;46987;32.638;-115.438;2022-12-07T00:56:24;11.43;;;2.42;;
61104;SDS011;46987;32.638;-115.438;2022-12-07T00:58:51;13.50;;;2.88;;
61104;SDS011;46987;32.638;-115.438;2022-12-07T01:01:18;11.27;;;3.10;;
61104;SDS011;46987;32.638;-115.438;2022-12-07T01:03:45;10.48;;;3.10;;
61104;SDS011;46987;32.638;-115.438;2022-12-07T01:06:13;14.95;;;3.03;;
61104;SDS011;46987;32.638;-115.438;2022-12-07T01:08:40;13.88;;;2.47;;
61104;SDS011;46987;32.638;-115.438;2022-12-07T01:11:09;12.32;;;2.20;;
61104;SDS011;46987;32.638;-115.438;2022-12-07T01:13:37;6.82;;;2.08;;
61104;SDS011;46987;32.638;-115.438;2022-12-07T01:16:04;15.02;;;2.60;;
61104;SDS011;46987;32.638;-115.438;2022-12-07T01:18:32;12.93;;;2.25;;
61104;SDS011;46987;32.638;-115.438;2022-12-07T01:20:59;14.23;;;2.78;;
61104;SDS011;46987;32.638;-115.438;2022-12-07T01:23:26;16.05;;;3.78;;
61104;SDS011;46987;32.638;-115.438;2022-12-07T01:25:56;12.38;;;2.42;;
61104;SDS011;46987;32.638;-115.438;2022-12-07T01:28:24;10.85;;;2.25;;
61104;SDS011;46987;32.638;-115.438;2022-12-07T01:30:57;8.82;;;2.40;;
61104;SDS011;46987;32.638;-115.438;2022-12-07T01:33:24;18.50;;;3.15;;
61104;SDS011;46987;32.638;-115.438;2022-12-07T01:35:52;27.15;;;3.95;;
61104;SDS011;46987;32.638;-115.438;2022-12-07T01:38:18;17.13;;;2.13;;
61104;SDS011;46987;32.638;-115.438;2022-12-07T01:40:45;19.60;;;2.78;;
61104;SDS011;46987;32.638;-115.438;2022-12-07T01:43:14;16.88;;;3.03;;
61104;SDS011;46987;32.638;-115.438;2022-12-07T01:45:44;15.63;;;2.42;;
61104;SDS011;46987;32.638;-115.438;2022-12-07T01:48:12;17.98;;;4.63;;
61104;SDS011;46987;32.638;-115.438;2022-12-07T01:50:43;20.27;;;5.32;;
61104;SDS011;46987;32.638;-115.438;2022-12-07T01:53:10;25.95;;;5.50;;
61104;SDS011;46987;32.638;-115.438;2022-12-07T01:55:38;26.63;;;6.88;;
61104;SDS011;46987;32.638;-115.438;2022-12-07T01:58:06;20.58;;;5.90;;
61104;SDS011;46987;32.638;-115.438;2022-12-07T02:00:33;24.25;;;6.68;;
61104;SDS011;46987;32.638;-115.438;2022-12-07T02:03:03;16.08;;;5.00;;
61104;SDS011;46987;32.638;-115.438;2022-12-07T02:05:34;18.55;;;4.70;;
61104;SDS011;46987;32.638;-115.438;2022-12-07T02:08:00;19.92;;;4.15;;
61104;SDS011;46987;32.638;-115.438;2022-12-07T02:10:28;13.48;;;2.72;;
61104;SDS011;46987;32.638;-115.438;2022-12-07T02:12:55;13.85;;;4.07;;
61104;SDS011;46987;32.638;-115.438;2022-12-07T02:15:24;14.25;;;4.18;;
61104;SDS011;46987;32.638;-115.438;2022-12-07T02:17:55;13.93;;;3.95;;
61104;SDS011;46987;32.638;-115.438;2022-12-07T02:20:28;16.98;;;3.90;;
61104;SDS011;46987;32.638;-115.438;2022-12-07T02:25:45;25.98;;;4.18;;
61104;SDS011;46987;32.638;-115.438;2022-12-07T02:28:18;22.50;;;5.57;;
61104;SDS011;46987;32.638;-115.438;2022-12-07T02:30:49;18.73;;;4.07;;
61104;SDS011;46987;32.638;-115.438;2022-12-07T02:33:17;21.88;;;4.47;;
61104;SDS011;46987;32.638;-115.438;2022-12-07T02:35:46;20.25;;;4.22;;
61104;SDS011;46987;32.638;-115.438;2022-12-07T02:38:16;18.38;;;4.45;;
61104;SDS011;46987;32.638;-115.438;2022-12-07T02:40:44;17.02;;;4.70;;
61104;SDS011;46987;32.638;-115.438;2022-12-07T02:43:16;14.82;;;4.20;;
61104;SDS011;46987;32.638;-115.438;2022-12-07T02:45:45;14.88;;;3.72;;
61104;SDS011;46987;32.638;-115.438;2022-12-07T02:48:18;18.17;;;3.78;;
61104;SDS011;46987;32.638;-115.438;2022-12-07T02:50:48;25.48;;;7.32;;
61104;SDS011;46987;32.638;-115.438;2022-12-07T02:53:31;24.02;;;6.28;;
61104;SDS011;46987;32.638;-115.438;2022-12-07T02:55:58;27.17;;;6.57;;
61104;SDS011;46987;32.638;-115.438;2022-12-07T02:58:29;27.10;;;6.80;;
61104;SDS011;46987;32.638;-115.438;2022-12-07T03:01:01;25.70;;;6.63;;
61104;SDS011;46987;32.638;-115.438;2022-12-07T03:03:32;27.63;;;7.50;;
61104;SDS011;46987;32.638;-115.438;2022-12-07T03:06:06;20.92;;;5.75;;
61104;SDS011;46987;32.638;-115.438;2022-12-07T03:08:37;18.17;;;5.85;;
61104;SDS011;46987;32.638;-115.438;2022-12-07T03:11:05;21.30;;;5.47;;
61104;SDS011;46987;32.638;-115.438;2022-12-07T03:13:33;19.65;;;6.25;;
61104;SDS011;46987;32.638;-115.438;2022-12-07T03:16:02;19.55;;;5.57;;
61104;SDS011;46987;32.638;-115.438;2022-12-07T03:18:30;17.35;;;6.63;;
61104;SDS011;46987;32.638;-115.438;2022-12-07T03:21:00;16.70;;;6.35;;
61104;SDS011;46987;32.638;-115.438;2022-12-07T03:23:28;26.00;;;7.50;;
61104;SDS011;46987;32.638;-115.438;2022-12-07T03:25:56;19.73;;;6.85;;
61104;SDS011;46987;32.638;-115.438;2022-12-07T03:28:29;31.98;;;6.72;;
61104;SDS011;46987;32.638;-115.438;2022-12-07T03:31:05;22.15;;;6.82;;
61104;SDS011;46987;32.638;-115.438;2022-12-07T03:36:04;23.27;;;6.57;;
61104;SDS011;46987;32.638;-115.438;2022-12-07T03:38:33;22.42;;;6.88;;
61104;SDS011;46987;32.638;-115.438;2022-12-07T03:41:03;23.83;;;6.55;;
61104;SDS011;46987;32.638;-115.438;2022-12-07T03:43:32;26.05;;;7.25;;
61104;SDS011;46987;32.638;-115.438;2022-12-07T03:46:00;23.90;;;7.10;;
61104;SDS011;46987;32.638;-115.438;2022-12-07T03:48:34;38.55;;;8.82;;
61104;SDS011;46987;32.638;-115.438;2022-12-07T03:51:01;28.10;;;8.93;;
61104;SDS011;46987;32.638;-115.438;2022-12-07T03:53:34;18.52;;;7.40;;
61104;SDS011;46987;32.638;-115.438;2022-12-07T03:56:02;21.13;;;7.90;;
61104;SDS011;46987;32.638;-115.438;2022-12-07T03:58:28;28.73;;;8.05;;
61104;SDS011;46987;32.638;-115.438;2022-12-07T04:00:56;35.55;;;11.88;;
61104;SDS011;46987;32.638;-115.438;2022-12-07T04:03:23;34.17;;;12.63;;
61104;SDS011;46987;32.638;-115.438;2022-12-07T04:05:49;35.25;;;10.68;;
61104;SDS011;46987;32.638;-115.438;2022-12-07T04:08:16;36.10;;;8.90;;
61104;SDS011;46987;32.638;-115.438;2022-12-07T04:10:44;30.70;;;9.05;;
61104;SDS011;46987;32.638;-115.438;2022-12-07T04:13:11;33.72;;;9.82;;
61104;SDS011;46987;32.638;-115.438;2022-12-07T04:15:37;28.85;;;8.95;;
61104;SDS011;46987;32.638;-115.438;2022-12-07T04:18:04;33.00;;;9.25;;
61104;SDS011;46987;32.638;-115.438;2022-12-07T04:20:30;30.80;;;8.55;;
61104;SDS011;46987;32.638;-115.438;2022-12-07T04:22:57;32.05;;;8.52;;
61104;SDS011;46987;32.638;-115.438;2022-12-07T04:25:23;27.70;;;9.38;;
61104;SDS011;46987;32.638;-115.438;2022-12-07T04:27:52;32.78;;;8.40;;
61104;SDS011;46987;32.638;-115.438;2022-12-07T04:30:19;31.92;;;10.50;;
61104;SDS011;46987;32.638;-115.438;2022-12-07T04:32:46;38.85;;;8.40;;
61104;SDS011;46987;32.638;-115.438;2022-12-07T04:35:12;22.23;;;8.63;;
61104;SDS011;46987;32.638;-115.438;2022-12-07T04:37:39;32.95;;;8.20;;
61104;SDS011;46987;32.638;-115.438;2022-12-07T04:40:08;25.65;;;8.38;;
61104;SDS011;46987;32.638;-115.438;2022-12-07T04:42:36;26.85;;;8.85;;
61104;SDS011;46987;32.638;-115.438;2022-12-07T04:45:06;31.50;;;8.93;;
61104;SDS011;46987;32.638;-115.438;2022-12-07T04:47:32;30.30;;;9.95;;
61104;SDS011;46987;32.638;-115.438;2022-12-07T04:50:01;24.20;;;6.97;;
61104;SDS011;46987;32.638;-115.438;2022-12-07T04:52:28;25.85;;;7.43;;
61104;SDS011;46987;32.638;-115.438;2022-12-07T04:54:54;33.78;;;8.35;;
61104;SDS011;46987;32.638;-115.438;2022-12-07T04:57:23;20.70;;;8.27;;
61104;SDS011;46987;32.638;-115.438;2022-12-07T04:59:52;20.63;;;6.82;;
61104;SDS011;46987;32.638;-115.438;2022-12-07T05:02:23;21.10;;;5.95;;
61104;SDS011;46987;32.638;-115.438;2022-12-07T05:04:59;23.52;;;6.35;;
61104;SDS011;46987;32.638;-115.438;2022-12-07T05:07:25;19.63;;;5.32;;
61104;SDS011;46987;32.638;-115.438;2022-12-07T05:09:52;20.83;;;4.57;;
61104;SDS011;46987;32.638;-115.438;2022-12-07T05:12:36;13.20;;;3.78;;
61104;SDS011;46987;32.638;-115.438;2022-12-07T05:15:09;15.38;;;3.67;;
61104;SDS011;46987;32.638;-115.438;2022-12-07T05:17:38;16.75;;;4.95;;
61104;SDS011;46987;32.638;-115.438;2022-12-07T05:20:05;12.40;;;3.55;;
61104;SDS011;46987;32.638;-115.438;2022-12-07T05:22:35;13.60;;;3.80;;
61104;SDS011;46987;32.638;-115.438;2022-12-07T05:25:01;10.90;;;3.88;;
61104;SDS011;46987;32.638;-115.438;2022-12-07T05:27:28;11.13;;;3.47;;
61104;SDS011;46987;32.638;-115.438;2022-12-07T05:29:54;14.80;;;3.25;;
61104;SDS011;46987;32.638;-115.438;2022-12-07T05:32:21;11.13;;;3.20;;
61104;SDS011;46987;32.638;-115.438;2022-12-07T05:34:49;7.80;;;2.25;;
61104;SDS011;46987;32.638;-115.438;2022-12-07T05:37:16;10.55;;;2.50;;
61104;SDS011;46987;32.638;-115.438;2022-12-07T05:39:42;13.60;;;2.72;;
61104;SDS011;46987;32.638;-115.438;2022-12-07T05:42:10;8.80;;;2.35;;
61104;SDS011;46987;32.638;-115.438;2022-12-07T05:44:42;12.63;;;2.60;;
61104;SDS011;46987;32.638;-115.438;2022-12-07T05:47:09;12.02;;;2.33;;
61104;SDS011;46987;32.638;-115.438;2022-12-07T05:49:57;8.75;;;2.15;;
61104;SDS011;46987;32.638;-115.438;2022-12-07T05:52:24;9.95;;;2.47;;
61104;SDS011;46987;32.638;-115.438;2022-12-07T05:54:52;9.68;;;2.35;;
61104;SDS011;46987;32.638;-115.438;2022-12-07T05:57:19;12.15;;;2.40;;
61104;SDS011;46987;32.638;-115.438;2022-12-07T05:59:51;8.13;;;2.30;;
61104;SDS011;46987;32.638;-115.438;2022-12-07T06:02:18;9.63;;;2.35;;
61104;SDS011;46987;32.638;-115.438;2022-12-07T06:04:45;9.60;;;2.60;;
61104;SDS011;46987;32.638;-115.438;2022-12-07T06:07:14;8.73;;;2.33;;
61104;SDS011;46987;32.638;-115.438;2022-12-07T06:09:41;13.73;;;2.75;;
61104;SDS011;46987;32.638;-115.438;2022-12-07T06:12:09;11.43;;;2.90;;
61104;SDS011;46987;32.638;-115.438;2022-12-07T06:14:56;12.52;;;3.40;;
61104;SDS011;46987;32.638;-115.438;2022-12-07T06:17:26;7.50;;;2.97;;
61104;SDS011;46987;32.638;-115.438;2022-12-07T06:19:52;9.98;;;3.20;;
61104;SDS011;46987;32.638;-115.438;2022-12-07T06:22:21;9.82;;;3.50;;
61104;SDS011;46987;32.638;-115.438;2022-12-07T06:24:47;9.88;;;3.97;;
61104;SDS011;46987;32.638;-115.438;2022-12-07T06:27:14;15.57;;;4.00;;
61104;SDS011;46987;32.638;-115.438;2022-12-07T06:29:40;10.93;;;3.83;;
61104;SDS011;46987;32.638;-115.438;2022-12-07T06:32:10;10.00;;;3.80;;
61104;SDS011;46987;32.638;-115.438;2022-12-07T06:34:37;12.88;;;3.42;;
61104;SDS011;46987;32.638;-115.438;2022-12-07T06:37:04;9.50;;;3.50;;
61104;SDS011;46987;32.638;-115.438;2022-12-07T06:39:33;10.18;;;4.18;;
61104;SDS011;46987;32.638;-115.438;2022-12-07T06:41:59;14.35;;;3.85;;
61104;SDS011;46987;32.638;-115.438;2022-12-07T06:44:26;11.38;;;3.88;;
61104;SDS011;46987;32.638;-115.438;2022-12-07T06:46:52;11.95;;;3.78;;
61104;SDS011;46987;32.638;-115.438;2022-12-07T06:49:22;15.70;;;4.35;;
61104;SDS011;46987;32.638;-115.438;2022-12-07T06:51:48;12.60;;;4.60;;
61104;SDS011;46987;32.638;-115.438;2022-12-07T06:54:15;15.23;;;5.32;;
61104;SDS011;46987;32.638;-115.438;2022-12-07T06:56:43;20.05;;;6.57;;
61104;SDS011;46987;32.638;-115.438;2022-12-07T06:59:10;25.42;;;8.05;;
61104;SDS011;46987;32.638;-115.438;2022-12-07T07:01:36;21.45;;;7.43;;
61104;SDS011;46987;32.638;-115.438;2022-12-07T07:04:06;24.63;;;8.23;;
61104;SDS011;46987;32.638;-115.438;2022-12-07T07:06:32;27.52;;;8.50;;
61104;SDS011;46987;32.638;-115.438;2022-12-07T07:08:59;32.08;;;9.43;;
61104;SDS011;46987;32.638;-115.438;2022-12-07T07:11:26;30.38;;;10.80;;
61104;SDS011;46987;32.638;-115.438;2022-12-07T07:13:57;32.58;;;11.43;;
61104;SDS011;46987;32.638;-115.438;2022-12-07T07:16:28;44.35;;;12.82;;
61104;SDS011;46987;32.638;-115.438;2022-12-07T07:18:58;36.47;;;14.60;;
61104;SDS011;46987;32.638;-115.438;2022-12-07T07:21:25;33.17;;;14.10;;
61104;SDS011;46987;32.638;-115.438;2022-12-07T07:23:51;34.00;;;14.50;;
61104;SDS011;46987;32.638;-115.438;2022-12-07T07:26:18;46.47;;;15.85;;
61104;SDS011;46987;32.638;-115.438;2022-12-07T07:28:45;38.45;;;14.68;;
61104;SDS011;46987;32.638;-115.438;2022-12-07T07:31:13;33.25;;;15.35;;
61104;SDS011;46987;32.638;-115.438;2022-12-07T07:33:39;44.60;;;16.00;;
61104;SDS011;46987;32.638;-115.438;2022-12-07T07:36:06;35.63;;;16.60;;
61104;SDS011;46987;32.638;-115.438;2022-12-07T07:38:33;36.45;;;16.58;;
61104;SDS011;46987;32.638;-115.438;2022-12-07T07:40:59;42.97;;;17.48;;
61104;SDS011;46987;32.638;-115.438;2022-12-07T07:43:26;37.78;;;17.77;;
61104;SDS011;46987;32.638;-115.438;2022-12-07T07:45:56;40.10;;;18.27;;
61104;SDS011;46987;32.638;-115.438;2022-12-07T07:48:24;43.80;;;17.08;;
61104;SDS011;46987;32.638;-115.438;2022-12-07T07:50:51;34.92;;;17.27;;
61104;SDS011;46987;32.638;-115.438;2022-12-07T07:53:18;35.38;;;14.73;;
61104;SDS011;46987;32.638;-115.438;2022-12-07T07:55:50;37.10;;;14.45;;
61104;SDS011;46987;32.638;-115.438;2022-12-07T07:58:16;36.40;;;14.82;;
61104;SDS011;46987;32.638;-115.438;2022-12-07T08:00:42;30.48;;;14.30;;
61104;SDS011;46987;32.638;-115.438;2022-12-07T08:03:09;31.58;;;13.10;;
61104;SDS011;46987;32.638;-115.438;2022-12-07T08:05:38;32.47;;;14.95;;
61104;SDS011;46987;32.638;-115.438;2022-12-07T08:08:04;37.33;;;15.23;;
61104;SDS011;46987;32.638;-115.438;2022-12-07T08:10:31;39.47;;;14.90;;
61104;SDS011;46987;32.638;-115.438;2022-12-07T08:13:03;36.38;;;16.20;;
61104;SDS011;46987;32.638;-115.438;2022-12-07T08:15:39;43.47;;;16.38;;
61104;SDS011;46987;32.638;-115.438;2022-12-07T08:18:06;41.88;;;16.83;;
61104;SDS011;46987;32.638;-115.438;2022-12-07T08:20:33;38.88;;;15.85;;
61104;SDS011;46987;32.638;-115.438;2022-12-07T08:23:02;39.75;;;16.83;;
61104;SDS011;46987;32.638;-115.438;2022-12-07T08:25:29;38.03;;;17.08;;
61104;SDS011;46987;32.638;-115.438;2022-12-07T08:27:56;43.53;;;19.83;;
61104;SDS011;46987;32.638;-115.438;2022-12-07T08:30:22;50.92;;;21.80;;
61104;SDS011;46987;32.638;-115.438;2022-12-07T08:32:49;51.00;;;22.08;;
61104;SDS011;46987;32.638;-115.438;2022-12-07T08:35:16;44.67;;;20.73;;
61104;SDS011;46987;32.638;-115.438;2022-12-07T08:37:42;45.63;;;21.75;;
61104;SDS011;46987;32.638;-115.438;2022-12-07T08:40:11;48.95;;;22.15;;
61104;SDS011;46987;32.638;-115.438;2022-12-07T08:42:42;44.47;;;21.00;;
61104;SDS011;46987;32.638;-115.438;2022-12-07T08:45:11;50.13;;;22.27;;
61104;SDS011;46987;32.638;-115.438;2022-12-07T08:47:39;56.20;;;21.50;;
61104;SDS011;46987;32.638;-115.438;2022-12-07T08:50:07;49.58;;;21.55;;
61104;SDS011;46987;32.638;-115.438;2022-12-07T08:52:34;58.15;;;21.30;;
61104;SDS011;46987;32.638;-115.438;2022-12-07T08:55:02;52.10;;;21.58;;
61104;SDS011;46987;32.638;-115.438;2022-12-07T08:57:31;48.65;;;22.50;;
61104;SDS011;46987;32.638;-115.438;2022-12-07T08:59:59;53.20;;;23.13;;
61104;SDS011;46987;32.638;-115.438;2022-12-07T09:02:25;44.78;;;21.42;;
61104;SDS011;46987;32.638;-115.438;2022-12-07T09:04:52;53.05;;;24.95;;
61104;SDS011;46987;32.638;-115.438;2022-12-07T09:07:18;64.85;;;32.53;;
61104;SDS011;46987;32.638;-115.438;2022-12-07T09:09:45;60.75;;;26.73;;
61104;SDS011;46987;32.638;-115.438;2022-12-07T09:12:12;67.45;;;29.02;;
61104;SDS011;46987;32.638;-115.438;2022-12-07T09:14:40;48.42;;;25.58;;
61104;SDS011;46987;32.638;-115.438;2022-12-07T09:17:07;55.53;;;24.63;;
61104;SDS011;46987;32.638;-115.438;2022-12-07T09:19:33;51.65;;;22.92;;
61104;SDS011;46987;32.638;-115.438;2022-12-07T09:22:00;44.67;;;21.42;;
61104;SDS011;46987;32.638;-115.438;2022-12-07T09:24:27;38.65;;;19.60;;
61104;SDS011;46987;32.638;-115.438;2022-12-07T09:26:53;50.58;;;21.25;;
61104;SDS011;46987;32.638;-115.438;2022-12-07T09:29:20;41.10;;;20.92;;
61104;SDS011;46987;32.638;-115.438;2022-12-07T09:31:48;43.58;;;20.08;;
61104;SDS011;46987;32.638;-115.438;2022-12-07T09:34:14;49.05;;;23.58;;
61104;SDS011;46987;32.638;-115.438;2022-12-07T09:36:41;50.30;;;22.58;;
61104;SDS011;46987;32.638;-115.438;2022-12-07T09:39:08;44.35;;;21.73;;
61104;SDS011;46987;32.638;-115.438;2022-12-07T09:41:43;48.80;;;22.00;;
61104;SDS011;46987;32.638;-115.438;2022-12-07T09:44:12;53.90;;;20.45;;
61104;SDS011;46987;32.638;-115.438;2022-12-07T09:46:40;40.67;;;18.35;;
61104;SDS011;46987;32.638;-115.438;2022-12-07T09:49:11;42.45;;;18.10;;
61104;SDS011;46987;32.638;-115.438;2022-12-07T09:51:38;49.17;;;19.00;;
61104;SDS011;46987;32.638;-115.438;2022-12-07T09:54:04;45.75;;;18.55;;
61104;SDS011;46987;32.638;-115.438;2022-12-07T09:56:31;44.97;;;17.33;;
61104;SDS011;46987;32.638;-115.438;2022-12-07T09:58:59;35.42;;;15.00;;
61104;SDS011;46987;32.638;-115.438;2022-12-07T10:01:27;43.65;;;16.80;;
61104;SDS011;46987;32.638;-115.438;2022-12-07T10:03:55;38.15;;;15.95;;
61104;SDS011;46987;32.638;-115.438;2022-12-07T10:06:26;41.90;;;15.57;;
61104;SDS011;46987;32.638;-115.438;2022-12-07T10:08:53;30.48;;;14.30;;
61104;SDS011;46987;32.638;-115.438;2022-12-07T10:11:20;30.48;;;14.35;;
61104;SDS011;46987;32.638;-115.438;2022-12-07T10:13:47;36.60;;;15.05;;
61104;SDS011;46987;32.638;-115.438;2022-12-07T10:16:32;33.05;;;14.02;;
61104;SDS011;46987;32.638;-115.438;2022-12-07T10:19:17;31.88;;;12.60;;
61104;SDS011;46987;32.638;-115.438;2022-12-07T10:21:59;29.10;;;12.83;;
61104;SDS011;46987;32.638;-115.438;2022-12-07T10:24:26;30.92;;;11.63;;
61104;SDS011;46987;32.638;-115.438;2022-12-07T10:26:53;29.05;;;11.52;;
61104;SDS011;46987;32.638;-115.438;2022-12-07T10:29:20;21.90;;;10.07;;
61104;SDS011;46987;32.638;-115.438;2022-12-07T10:31:50;20.83;;;10.32;;
61104;SDS011;46987;32.638;-115.438;2022-12-07T10:34:20;21.58;;;9.55;;
61104;SDS011;46987;32.638;-115.438;2022-12-07T10:36:50;21.33;;;9.68;;
61104;SDS011;46987;32.638;-115.438;2022-12-07T10:39:17;23.25;;;10.50;;
61104;SDS011;46987;32.638;-115.438;2022-12-07T10:41:53;16.73;;;9.15;;
61104;SDS011;46987;32.638;-115.438;2022-12-07T10:44:21;16.02;;;8.32;;
61104;SDS011;46987;32.638;-115.438;2022-12-07T10:46:54;21.77;;;10.10;;
61104;SDS011;46987;32.638;-115.438;2022-12-07T10:52:24;19.77;;;10.68;;
61104;SDS011;46987;32.638;-115.438;2022-12-07T10:54:59;19.55;;;10.75;;
61104;SDS011;46987;32.638;-115.438;2022-12-07T10:57:33;22.90;;;10.77;;
61104;SDS011;46987;32.638;-115.438;2022-12-07T11:00:02;23.48;;;8.80;;
61104;SDS011;46987;32.638;-115.438;2022-12-07T11:02:34;16.55;;;9.48;;
61104;SDS011;46987;32.638;-115.438;2022-12-07T11:05:05;21.17;;;7.43;;
61104;SDS011;46987;32.638;-115.438;2022-12-07T11:07:39;16.60;;;6.78;;
61104;SDS011;46987;32.638;-115.438;2022-12-07T11:10:09;10.02;;;5.57;;
61104;SDS011;46987;32.638;-115.438;2022-12-07T11:12:48;12.65;;;5.00;;
61104;SDS011;46987;32.638;-115.438;2022-12-07T11:15:18;8.70;;;4.97;;
61104;SDS011;46987;32.638;-115.438;2022-12-07T11:17:48;12.18;;;4.85;;
61104;SDS011;46987;32.638;-115.438;2022-12-07T11:20:24;10.17;;;3.90;;
61104;SDS011;46987;32.638;-115.438;2022-12-07T11:23:00;11.73;;;4.57;;
61104;SDS011;46987;32.638;-115.438;2022-12-07T11:25:28;12.57;;;3.60;;
61104;SDS011;46987;32.638;-115.438;2022-12-07T11:28:02;6.32;;;3.55;;
61104;SDS011;46987;32.638;-115.438;2022-12-07T11:30:31;7.63;;;2.75;;
61104;SDS011;46987;32.638;-115.438;2022-12-07T11:35:46;7.13;;;3.50;;
61104;SDS011;46987;32.638;-115.438;2022-12-07T11:38:20;7.65;;;3.45;;
61104;SDS011;46987;32.638;-115.438;2022-12-07T11:40:48;8.10;;;3.20;;
61104;SDS011;46987;32.638;-115.438;2022-12-07T11:43:19;6.57;;;2.70;;
61104;SDS011;46987;32.638;-115.438;2022-12-07T11:45:48;8.93;;;3.20;;
61104;SDS011;46987;32.638;-115.438;2022-12-07T11:48:17;4.45;;;2.20;;
61104;SDS011;46987;32.638;-115.438;2022-12-07T11:50:47;6.47;;;2.20;;
61104;SDS011;46987;32.638;-115.438;2022-12-07T11:53:15;5.53;;;2.60;;
61104;SDS011;46987;32.638;-115.438;2022-12-07T11:55:46;4.18;;;2.40;;
61104;SDS011;46987;32.638;-115.438;2022-12-07T11:58:30;9.88;;;3.97;;
61104;SDS011;46987;32.638;-115.438;2022-12-07T12:01:05;5.65;;;2.30;;
61104;SDS011;46987;32.638;-115.438;2022-12-07T12:03:35;5.15;;;2.50;;
61104;SDS011;46987;32.638;-115.438;2022-12-07T12:06:03;7.53;;;2.53;;
61104;SDS011;46987;32.638;-115.438;2022-12-07T12:08:30;6.05;;;2.55;;
61104;SDS011;46987;32.638;-115.438;2022-12-07T12:11:02;6.30;;;2.67;;
61104;SDS011;46987;32.638;-115.438;2022-12-07T12:16:01;10.77;;;3.08;;
61104;SDS011;46987;32.638;-115.438;2022-12-07T12:21:14;5.07;;;2.25;;
61104;SDS011;46987;32.638;-115.438;2022-12-07T12:23:42;7.40;;;2.80;;
61104;SDS011;46987;32.638;-115.438;2022-12-07T12:26:15;7.32;;;2.75;;
61104;SDS011;46987;32.638;-115.438;2022-12-07T12:28:48;10.07;;;2.72;;
61104;SDS011;46987;32.638;-115.438;2022-12-07T12:31:16;5.95;;;2.25;;
61104;SDS011;46987;32.638;-115.438;2022-12-07T12:33:55;6.40;;;2.47;;
61104;SDS011;46987;32.638;-115.438;2022-12-07T12:36:25;4.97;;;2.33;;
61104;SDS011;46987;32.638;-115.438;2022-12-07T12:39:08;6.53;;;2.03;;
61104;SDS011;46987;32.638;-115.438;2022-12-07T12:41:54;7.78;;;1.88;;
61104;SDS011;46987;32.638;-115.438;2022-12-07T12:47:02;6.03;;;2.25;;
61104;SDS011;46987;32.638;-115.438;2022-12-07T12:49:38;5.53;;;1.88;;
61104;SDS011;46987;32.638;-115.438;2022-12-07T12:54:57;4.55;;;1.70;;
61104;SDS011;46987;32.638;-115.438;2022-12-07T12:57:26;6.38;;;2.20;;
61104;SDS011;46987;32.638;-115.438;2022-12-07T12:59:56;8.25;;;2.35;;
61104;SDS011;46987;32.638;-115.438;2022-12-07T13:02:23;5.53;;;1.98;;
61104;SDS011;46987;32.638;-115.438;2022-12-07T13:04:52;6.20;;;2.42;;
61104;SDS011;46987;32.638;-115.438;2022-12-07T13:10:04;4.65;;;1.75;;
61104;SDS011;46987;32.638;-115.438;2022-12-07T13:12:32;5.20;;;1.92;;
61104;SDS011;46987;32.638;-115.438;2022-12-07T13:14:58;4.60;;;1.88;;
61104;SDS011;46987;32.638;-115.438;2022-12-07T13:20:39;4.22;;;1.90;;
61104;SDS011;46987;32.638;-115.438;2022-12-07T13:23:01;5.60;;;1.73;;
61104;SDS011;46987;32.638;-115.438;2022-12-07T13:25:36;7.00;;;2.55;;
61104;SDS011;46987;32.638;-115.438;2022-12-07T13:28:09;8.43;;;2.20;;
61104;SDS011;46987;32.638;-115.438;2022-12-07T13:30:40;4.53;;;1.70;;
61104;SDS011;46987;32.638;-115.438;2022-12-07T13:33:09;5.07;;;1.85;;
61104;SDS011;46987;32.638;-115.438;2022-12-07T13:35:36;5.25;;;1.77;;
61104;SDS011;46987;32.638;-115.438;2022-12-07T13:38:16;4.88;;;1.50;;
61104;SDS011;46987;32.638;-115.438;2022-12-07T13:40:59;3.55;;;1.73;;
61104;SDS011;46987;32.638;-115.438;2022-12-07T13:43:27;5.40;;;1.90;;
61104;SDS011;46987;32.638;-115.438;2022-12-07T13:45:55;4.43;;;1.63;;
61104;SDS011;46987;32.638;-115.438;2022-12-07T13:48:24;5.20;;;1.90;;
61104;SDS011;46987;32.638;-115.438;2022-12-07T13:50:54;5.47;;;1.75;;
61104;SDS011;46987;32.638;-115.438;2022-12-07T13:53:21;2.92;;;1.20;;
61104;SDS011;46987;32.638;-115.438;2022-12-07T13:55:47;5.72;;;1.70;;
61104;SDS011;46987;32.638;-115.438;2022-12-07T13:58:14;6.70;;;2.17;;
61104;SDS011;46987;32.638;-115.438;2022-12-07T14:00:42;6.68;;;1.77;;
61104;SDS011;46987;32.638;-115.438;2022-12-07T14:06:06;6.60;;;1.73;;
61104;SDS011;46987;32.638;-115.438;2022-12-07T14:08:33;5.57;;;2.00;;
61104;SDS011;46987;32.638;-115.438;2022-12-07T14:11:00;5.35;;;1.33;;
61104;SDS011;46987;32.638;-115.438;2022-12-07T14:13:28;5.18;;;1.65;;
61104;SDS011;46987;32.638;-115.438;2022-12-07T14:15:58;6.30;;;1.55;;
61104;SDS011;46987;32.638;-115.438;2022-12-07T14:18:26;7.32;;;1.75;;
61104;SDS011;46987;32.638;-115.438;2022-12-07T14:21:03;6.53;;;1.65;;
61104;SDS011;46987;32.638;-115.438;2022-12-07T14:23:30;6.20;;;1.85;;
61104;SDS011;46987;32.638;-115.438;2022-12-07T14:26:05;5.93;;;1.90;;
61104;SDS011;46987;32.638;-115.438;2022-12-07T14:28:33;6.32;;;1.58;;
61104;SDS011;46987;32.638;-115.438;2022-12-07T14:31:02;9.38;;;2.22;;
61104;SDS011;46987;32.638;-115.438;2022-12-07T14:33:38;6.55;;;1.98;;
61104;SDS011;46987;32.638;-115.438;2022-12-07T14:36:05;5.03;;;1.70;;